CheckWX is a tool to help pilots better visualize weather data.  It is not intended as a substitute for an official pre-flight weather briefing.

23:44:12 UTC

EPKK TAF
John Paul II International Kraków-Balice Airport
Kraków, Poland
TAF EPKK 142030Z 1421/1521 07007KT 9999 BKN007 BECMG 1421/1424 0800 FG BKN004 TEMPO 1422/1507 0200 FG BKN001 BECMG 1507/1509 2000 BR TEMPO 1509/1515 4000 BR BKN015 BECMG 1518/1521 0800 FG BKN004

Nov-14@
21:00 UTC

Nov-14 @ 21:00 UTC

Nov-15@
21:00 UTC

Nov-15 @ 21:00 UTC

TAF EPKK 142030Z 1421/1521 07007KT 9999 BKN007
Wind
  • 070° at 7 KTS
Cloud Levels
  • Broken at 700' AGL

Nov-14@
21:00 UTC

Nov-14 @ 21:00 UTC

Nov-15@
07:00 UTC

Nov-15 @ 07:00 UTC

BECMG 1421/1424 0800 FG BKN004

Becoming

Becoming Conditions expected by Fri, Nov 15, 2019 @ 00:00 UTC

Wind
  • 070° at 7 KTS
Conditions
Fog
Cloud Levels
  • Broken at 400' AGL

Nov-14@
22:00 UTC

Nov-14 @ 22:00 UTC

Nov-15@
07:00 UTC

Nov-15 @ 07:00 UTC

TEMPO 1422/1507 0200 FG BKN001

Temporary

Temporary Changes expected for less than half the time period

Conditions
Fog
Cloud Levels
  • Broken at 100' AGL

Nov-15@
07:00 UTC

Nov-15 @ 07:00 UTC

Nov-15@
18:00 UTC

Nov-15 @ 18:00 UTC

BECMG 1507/1509 2000 BR

Becoming

Becoming Conditions expected by Fri, Nov 15, 2019 @ 09:00 UTC

Wind
  • 070° at 7 KTS
Conditions
Mist
Cloud Levels
  • Broken at 400' AGL

Nov-15@
09:00 UTC

Nov-15 @ 09:00 UTC

Nov-15@
15:00 UTC

Nov-15 @ 15:00 UTC

TEMPO 1509/1515 4000 BR BKN015

Temporary

Temporary Changes expected for less than half the time period

Conditions
Mist
Cloud Levels
  • Broken at 1,500' AGL

Nov-15@
18:00 UTC

Nov-15 @ 18:00 UTC

Nov-15@
21:00 UTC

Nov-15 @ 21:00 UTC

BECMG 1518/1521 0800 FG BKN004

Becoming

Becoming Conditions expected by Fri, Nov 15, 2019 @ 21:00 UTC

Wind
  • 070° at 7 KTS
Conditions
Fog
Cloud Levels
  • Broken at 400' AGL